Time;durP1;ratioP1;P1;durP2;ratioP2;P2;SDS_P1;SDS_P2;PMS_P1;PMS_P2;Temp;Humidity;BMP_temperature;BMP_pressure;BME280_temperature;BME280_humidity;BME280_pressure;Samples;Min_cycle;Max_cycle;Signal;HPM_P1;HPM_P2
2023/08/01 00:01:23;;;;;;;4.87;3.47;;;16.10;99.90;;;;;;5025182;28;20223;-65
2023/08/01 00:03:52;;;;;;;4.17;3.63;;;16.10;99.90;;;;;;5022519;28;20699;-64
2023/08/01 00:06:22;;;;;;;6.17;3.73;;;16.10;99.90;;;;;;5006750;28;20236;-64
2023/08/01 00:08:50;;;;;;;4.10;3.70;;;16.10;99.90;;;;;;5022816;28;20707;-64
2023/08/01 00:11:18;;;;;;;7.97;4.40;;;16.00;99.90;;;;;;5021232;28;20200;-64
2023/08/01 00:13:47;;;;;;;7.93;3.93;;;16.00;99.90;;;;;;5002984;28;20205;-65
2023/08/01 00:16:15;;;;;;;6.57;4.03;;;16.00;99.90;;;;;;5021152;28;20235;-64
2023/08/01 00:18:43;;;;;;;7.70;4.40;;;16.00;99.90;;;;;;5019800;28;20224;-64
2023/08/01 00:21:13;;;;;;;8.57;4.20;;;16.10;99.90;;;;;;5029038;28;20246;-64
2023/08/01 00:23:42;;;;;;;6.03;4.23;;;16.00;99.90;;;;;;5027211;28;20239;-64
2023/08/01 00:26:10;;;;;;;6.00;4.40;;;16.00;99.90;;;;;;5020445;28;20200;-62
2023/08/01 00:28:38;;;;;;;8.20;4.70;;;16.00;99.90;;;;;;5020466;28;20193;-64
2023/08/01 00:31:09;;;;;;;7.00;4.70;;;16.00;99.90;;;;;;5020642;28;20768;-65
2023/08/01 00:33:37;;;;;;;8.60;4.73;;;16.00;99.90;;;;;;5025710;28;20308;-64
2023/08/01 00:36:08;;;;;;;6.57;4.27;;;16.00;99.90;;;;;;5021605;28;20235;-64
2023/08/01 00:38:39;;;;;;;4.93;4.17;;;16.00;99.90;;;;;;5018803;28;20220;-64
2023/08/01 00:41:07;;;;;;;7.07;5.00;;;16.00;99.90;;;;;;5022421;28;20205;-64
2023/08/01 00:43:35;;;;;;;9.23;5.37;;;16.00;99.90;;;;;;5022095;28;20240;-64
2023/08/01 00:46:06;;;;;;;12.97;5.50;;;16.00;99.90;;;;;;5021323;28;20217;-65
2023/08/01 00:48:34;;;;;;;9.73;4.83;;;16.00;99.90;;;;;;5018669;28;20221;-64
2023/08/01 00:51:06;;;;;;;8.30;5.57;;;16.00;99.90;;;;;;5019591;28;20213;-64
2023/08/01 00:53:35;;;;;;;9.07;5.77;;;16.00;99.90;;;;;;5022664;28;20232;-64
2023/08/01 00:56:05;;;;;;;13.13;6.13;;;16.00;99.90;;;;;;5024045;28;20208;-65
2023/08/01 00:58:33;;;;;;;14.30;6.20;;;16.00;99.90;;;;;;5028085;28;20228;-64
2023/08/01 01:01:03;;;;;;;11.10;5.80;;;16.00;99.90;;;;;;5017576;28;20287;-64
2023/08/01 01:03:32;;;;;;;11.63;6.20;;;15.90;99.90;;;;;;5023130;28;20350;-64
2023/08/01 01:06:07;;;;;;;10.27;6.63;;;15.90;99.90;;;;;;5024478;28;20232;-64
2023/08/01 01:08:35;;;;;;;13.17;6.67;;;16.00;99.90;;;;;;5032116;28;20218;-64
2023/08/01 01:11:05;;;;;;;18.30;7.27;;;15.90;99.90;;;;;;5030937;28;20200;-65
2023/08/01 01:13:33;;;;;;;10.63;6.87;;;15.90;99.90;;;;;;5026251;28;20418;-64
2023/08/01 01:16:02;;;;;;;12.70;6.47;;;15.90;99.90;;;;;;5026763;28;20226;-64
2023/08/01 01:18:31;;;;;;;16.13;7.17;;;15.90;99.90;;;;;;5032726;28;20224;-64
2023/08/01 01:21:00;;;;;;;11.50;6.90;;;15.90;99.90;;;;;;5029036;28;20239;-65
2023/08/01 01:23:30;;;;;;;9.83;6.90;;;15.90;99.90;;;;;;5029285;28;20193;-64
2023/08/01 01:25:59;;;;;;;12.83;7.03;;;15.90;99.90;;;;;;5038779;28;20197;-65
2023/08/01 01:28:28;;;;;;;14.97;7.40;;;15.90;99.90;;;;;;5029972;28;20576;-64
2023/08/01 01:30:57;;;;;;;18.53;7.40;;;15.80;99.90;;;;;;5032618;28;20232;-65
2023/08/01 01:33:26;;;;;;;13.47;7.97;;;15.80;99.90;;;;;;5033792;28;20216;-64
2023/08/01 01:35:55;;;;;;;14.17;8.07;;;15.80;99.90;;;;;;5028272;28;20609;-64
2023/08/01 01:38:25;;;;;;;13.47;7.87;;;15.80;99.90;;;;;;5032707;28;20195;-64
2023/08/01 01:40:53;;;;;;;19.07;9.10;;;15.80;99.90;;;;;;5031309;28;20187;-65
2023/08/01 01:43:21;;;;;;;14.87;9.10;;;15.80;99.90;;;;;;5030346;28;20247;-64
2023/08/01 01:45:50;;;;;;;16.00;9.00;;;15.80;99.90;;;;;;5030699;28;20241;-64
2023/08/01 01:48:18;;;;;;;19.37;9.73;;;15.80;99.90;;;;;;5027899;28;20227;-64
2023/08/01 01:50:46;;;;;;;17.77;10.60;;;15.80;99.90;;;;;;5029840;28;20227;-64
2023/08/01 01:53:15;;;;;;;17.80;10.80;;;15.70;99.90;;;;;;5032237;28;20210;-64
2023/08/01 01:55:45;;;;;;;18.23;10.57;;;15.80;99.90;;;;;;5033430;28;20197;-64
2023/08/01 01:58:13;;;;;;;17.23;10.50;;;15.70;99.90;;;;;;5028157;28;20221;-64
2023/08/01 02:00:41;;;;;;;23.43;11.00;;;15.70;99.90;;;;;;5029536;28;20230;-64
2023/08/01 02:03:10;;;;;;;17.53;10.27;;;15.70;99.90;;;;;;5025932;28;20221;-64
2023/08/01 02:05:40;;;;;;;19.97;10.23;;;15.70;99.90;;;;;;5029045;28;20225;-64
2023/08/01 02:08:09;;;;;;;21.33;10.93;;;15.70;99.90;;;;;;5021553;28;20196;-64
2023/08/01 02:10:37;;;;;;;20.90;10.13;;;15.70;99.90;;;;;;5023817;28;20228;-65
2023/08/01 02:13:08;;;;;;;18.43;11.30;;;15.70;99.90;;;;;;5027424;28;20216;-64
2023/08/01 02:15:36;;;;;;;21.30;11.23;;;15.70;99.90;;;;;;5025383;28;20221;-64
2023/08/01 02:18:04;;;;;;;20.23;12.00;;;15.70;99.90;;;;;;5027260;28;20317;-64
2023/08/01 02:20:33;;;;;;;19.97;10.77;;;15.70;99.90;;;;;;5030573;28;20595;-64
2023/08/01 02:23:01;;;;;;;19.93;11.27;;;15.80;99.90;;;;;;5027375;28;20191;-64
2023/08/01 02:25:29;;;;;;;20.40;11.17;;;15.80;99.90;;;;;;5029179;28;20330;-64
2023/08/01 02:27:58;;;;;;;19.37;10.20;;;15.80;99.90;;;;;;5028843;28;20224;-64
2023/08/01 02:30:29;;;;;;;23.13;10.97;;;15.90;99.90;;;;;;5024989;28;20307;-64
2023/08/01 02:32:57;;;;;;;20.90;11.77;;;15.90;99.90;;;;;;5028300;28;20234;-64
2023/08/01 02:35:26;;;;;;;18.30;10.27;;;15.90;99.90;;;;;;5026892;28;21093;-64
2023/08/01 02:37:54;;;;;;;17.33;10.60;;;15.90;99.90;;;;;;5025924;28;20223;-64
2023/08/01 02:40:22;;;;;;;14.73;10.17;;;15.90;99.90;;;;;;5025220;28;20780;-65
2023/08/01 02:42:52;;;;;;;17.73;9.70;;;15.90;99.90;;;;;;5026572;28;20238;-64
2023/08/01 02:45:20;;;;;;;22.80;9.57;;;15.90;99.90;;;;;;5028571;28;20216;-64
2023/08/01 02:47:50;;;;;;;18.77;9.03;;;16.00;99.90;;;;;;5027261;28;20217;-64
2023/08/01 02:50:18;;;;;;;15.80;9.27;;;16.00;99.90;;;;;;5023892;28;20250;-63
2023/08/01 02:52:46;;;;;;;18.70;8.30;;;16.00;99.90;;;;;;5028972;28;20214;-64
2023/08/01 02:55:15;;;;;;;22.90;8.47;;;16.00;99.90;;;;;;5028861;28;20721;-64
2023/08/01 02:57:43;;;;;;;15.40;7.60;;;16.00;99.90;;;;;;5021999;28;20228;-64
2023/08/01 03:00:12;;;;;;;13.57;6.73;;;16.00;99.90;;;;;;5023410;28;20235;-64
2023/08/01 03:02:40;;;;;;;22.77;7.43;;;16.00;99.90;;;;;;5022628;28;20566;-64
2023/08/01 03:05:11;;;;;;;13.17;7.13;;;16.00;99.90;;;;;;5023103;28;20207;-64
2023/08/01 03:07:39;;;;;;;14.30;7.37;;;16.00;99.90;;;;;;5018740;28;20833;-64
2023/08/01 03:10:08;;;;;;;22.50;7.30;;;15.90;99.90;;;;;;5021942;28;20275;-64
2023/08/01 03:12:41;;;;;;;13.77;6.93;;;15.90;99.90;;;;;;5029402;28;20220;-64
2023/08/01 03:15:10;;;;;;;24.20;7.17;;;15.90;99.90;;;;;;5024535;28;20219;-64
2023/08/01 03:17:38;;;;;;;13.60;7.03;;;15.90;99.90;;;;;;5024279;28;20902;-65
2023/08/01 03:20:10;;;;;;;14.20;7.27;;;15.90;99.90;;;;;;5028641;28;20204;-64
2023/08/01 03:22:41;;;;;;;17.80;8.10;;;15.90;99.90;;;;;;5028140;28;20246;-64
2023/08/01 03:25:09;;;;;;;20.37;7.40;;;15.90;99.90;;;;;;5025030;28;20223;-64
2023/08/01 03:27:38;;;;;;;20.73;8.20;;;15.90;99.90;;;;;;5030123;28;20573;-64
2023/08/01 03:30:08;;;;;;;15.37;7.60;;;15.90;99.90;;;;;;5024635;28;20228;-64
2023/08/01 03:32:37;;;;;;;19.33;8.23;;;15.90;99.90;;;;;;5030476;28;20586;-64
2023/08/01 03:35:07;;;;;;;17.30;8.23;;;15.90;99.90;;;;;;5031735;28;20212;-63
2023/08/01 03:37:37;;;;;;;14.23;8.57;;;15.80;99.90;;;;;;5025808;28;20227;-64
2023/08/01 03:40:09;;;;;;;16.73;7.47;;;15.80;99.90;;;;;;5028983;28;20231;-64
2023/08/01 03:42:38;;;;;;;19.93;8.60;;;15.90;99.90;;;;;;5029214;28;20231;-64
2023/08/01 03:45:08;;;;;;;17.80;8.83;;;15.90;99.90;;;;;;5027802;28;20701;-65
2023/08/01 03:47:36;;;;;;;19.17;8.33;;;15.80;99.90;;;;;;5029705;28;20285;-64
2023/08/01 03:50:05;;;;;;;19.47;7.70;;;15.80;99.90;;;;;;5027842;28;20561;-65
2023/08/01 03:52:33;;;;;;;17.17;8.00;;;15.80;99.90;;;;;;5029401;28;20851;-64
2023/08/01 03:55:02;;;;;;;16.60;8.00;;;15.80;99.90;;;;;;5028540;28;20227;-64
2023/08/01 03:57:33;;;;;;;17.00;8.30;;;15.70;99.90;;;;;;5018229;28;20601;-64
2023/08/01 04:00:03;;;;;;;17.90;8.60;;;15.70;99.90;;;;;;5024967;28;20227;-64
2023/08/01 04:02:31;;;;;;;14.47;8.00;;;15.70;99.90;;;;;;5024697;28;20586;-64
2023/08/01 04:04:59;;;;;;;17.33;8.17;;;15.80;99.90;;;;;;5025991;28;20206;-64
2023/08/01 04:07:27;;;;;;;20.10;8.63;;;15.80;99.90;;;;;;5026398;28;20232;-64
2023/08/01 04:09:56;;;;;;;20.03;8.87;;;15.70;99.90;;;;;;5024103;28;20230;-64
2023/08/01 04:12:24;;;;;;;13.87;7.80;;;15.70;99.90;;;;;;5025619;28;20228;-64
2023/08/01 04:14:54;;;;;;;19.40;8.83;;;15.70;99.90;;;;;;5002161;28;20225;-64
2023/08/01 04:17:22;;;;;;;18.30;8.17;;;15.60;99.90;;;;;;5022289;28;20203;-64
2023/08/01 04:19:50;;;;;;;16.37;8.50;;;15.60;99.90;;;;;;5023835;28;20205;-64
2023/08/01 04:22:19;;;;;;;19.73;8.83;;;15.60;99.90;;;;;;5029733;28;20675;-64
2023/08/01 04:24:47;;;;;;;18.43;8.50;;;15.60;99.90;;;;;;5023775;28;20318;-64
2023/08/01 04:27:15;;;;;;;21.07;9.33;;;15.50;99.90;;;;;;5026325;28;20211;-64
2023/08/01 04:29:43;;;;;;;18.67;9.07;;;15.50;99.90;;;;;;5024309;28;20638;-64
2023/08/01 04:32:14;;;;;;;17.83;9.40;;;15.60;99.90;;;;;;5023132;28;20202;-64
2023/08/01 04:34:43;;;;;;;21.67;8.90;;;15.60;99.90;;;;;;5026140;28;20267;-64
2023/08/01 04:37:11;;;;;;;16.43;7.97;;;15.60;99.90;;;;;;5006382;28;20239;-64
2023/08/01 04:39:39;;;;;;;18.20;7.47;;;15.60;99.90;;;;;;5018761;28;20224;-64
2023/08/01 04:42:08;;;;;;;16.93;8.23;;;15.60;99.90;;;;;;5020022;28;20228;-64
2023/08/01 04:44:36;;;;;;;15.10;7.77;;;15.60;99.90;;;;;;5017022;28;20227;-64
2023/08/01 04:47:05;;;;;;;19.53;8.00;;;15.70;99.90;;;;;;5021467;28;20197;-64
2023/08/01 04:49:34;;;;;;;13.73;7.07;;;15.70;99.90;;;;;;5021412;28;20736;-64
2023/08/01 04:52:03;;;;;;;18.70;7.57;;;15.80;99.90;;;;;;5015480;28;20222;-64
2023/08/01 04:54:35;;;;;;;15.57;7.20;;;15.80;99.90;;;;;;5023841;28;20227;-64
2023/08/01 04:57:04;;;;;;;15.30;7.00;;;15.80;99.90;;;;;;5022305;28;20240;-64
2023/08/01 04:59:32;;;;;;;20.47;7.27;;;15.80;99.90;;;;;;5020648;28;20226;-64
2023/08/01 05:02:02;;;;;;;17.33;6.97;;;15.90;99.90;;;;;;5024986;28;20209;-64
2023/08/01 05:04:30;;;;;;;14.53;7.10;;;16.00;99.90;;;;;;5023343;28;20223;-64
2023/08/01 05:07:00;;;;;;;17.53;7.40;;;16.00;99.90;;;;;;5024025;28;20231;-64
2023/08/01 05:09:28;;;;;;;20.30;6.97;;;16.10;99.90;;;;;;5019614;28;20588;-64
2023/08/01 05:11:57;;;;;;;19.37;7.33;;;16.20;99.90;;;;;;5018119;28;20232;-64
2023/08/01 05:14:25;;;;;;;14.60;7.00;;;16.30;99.90;;;;;;5025236;28;20193;-64
2023/08/01 05:16:53;;;;;;;16.57;7.50;;;16.40;99.90;;;;;;5027168;28;20200;-65
2023/08/01 05:19:22;;;;;;;15.63;6.90;;;16.40;99.90;;;;;;5022833;28;20583;-65
2023/08/01 05:21:50;;;;;;;16.37;7.43;;;16.50;99.90;;;;;;5026276;28;20795;-64
2023/08/01 05:24:20;;;;;;;14.53;7.53;;;16.50;99.90;;;;;;5025918;28;20779;-64
2023/08/01 05:26:48;;;;;;;14.83;7.30;;;16.50;99.90;;;;;;5027856;28;20224;-64
2023/08/01 05:29:17;;;;;;;18.57;7.70;;;16.50;99.90;;;;;;5026417;28;20509;-64
2023/08/01 05:31:45;;;;;;;14.97;6.90;;;16.50;99.90;;;;;;5010542;28;20255;-64
2023/08/01 05:34:13;;;;;;;17.87;7.10;;;16.50;99.90;;;;;;5028446;28;20698;-65
2023/08/01 05:36:42;;;;;;;15.07;6.30;;;16.50;99.90;;;;;;5028103;28;20217;-64
2023/08/01 05:39:10;;;;;;;16.13;6.47;;;16.50;99.90;;;;;;5027104;28;20679;-64
2023/08/01 05:41:40;;;;;;;13.27;6.67;;;16.40;99.90;;;;;;5026833;28;20259;-64
2023/08/01 05:44:09;;;;;;;15.83;6.60;;;16.40;99.90;;;;;;5027105;28;20231;-65
2023/08/01 05:46:37;;;;;;;12.40;6.77;;;16.40;99.90;;;;;;5027268;28;20220;-65
2023/08/01 05:49:06;;;;;;;14.27;6.50;;;16.40;99.90;;;;;;5029544;28;20320;-64
2023/08/01 05:51:34;;;;;;;11.77;6.37;;;16.40;99.90;;;;;;5031727;28;20238;-64
2023/08/01 05:54:03;;;;;;;10.73;6.17;;;16.40;99.90;;;;;;5027226;28;20235;-64
2023/08/01 05:56:31;;;;;;;16.33;6.43;;;16.40;99.90;;;;;;5027336;28;20717;-64
2023/08/01 05:59:01;;;;;;;12.33;5.83;;;16.40;99.90;;;;;;5028927;28;20710;-64
2023/08/01 06:01:29;;;;;;;14.47;6.20;;;16.40;99.90;;;;;;5025584;28;20225;-64
2023/08/01 06:03:58;;;;;;;19.10;6.80;;;16.40;99.90;;;;;;5023493;28;20242;-64
2023/08/01 06:06:26;;;;;;;13.13;6.43;;;16.50;99.90;;;;;;5018197;28;20220;-65
2023/08/01 06:08:55;;;;;;;13.83;6.00;;;16.50;99.90;;;;;;5023354;28;21384;-64
2023/08/01 06:11:24;;;;;;;15.37;6.40;;;16.50;99.90;;;;;;5023021;28;21067;-64
2023/08/01 06:13:53;;;;;;;14.47;6.50;;;16.50;99.90;;;;;;5023637;28;21303;-64
2023/08/01 06:16:22;;;;;;;19.40;6.93;;;16.50;99.90;;;;;;5023894;28;21230;-64
2023/08/01 06:18:54;;;;;;;11.83;5.70;;;16.50;99.90;;;;;;5022610;28;20321;-64
2023/08/01 06:21:22;;;;;;;14.93;6.67;;;16.50;99.90;;;;;;5024267;28;20252;-64
2023/08/01 06:23:51;;;;;;;13.83;6.20;;;16.60;99.90;;;;;;5024480;28;20304;-64
2023/08/01 06:26:19;;;;;;;13.43;6.10;;;16.50;99.90;;;;;;5020527;28;20264;-64
2023/08/01 06:28:47;;;;;;;12.27;6.20;;;16.50;99.90;;;;;;5022792;28;20204;-64
2023/08/01 06:31:15;;;;;;;9.97;5.87;;;16.70;99.90;;;;;;5026313;28;20225;-64
2023/08/01 06:33:45;;;;;;;14.57;6.17;;;16.90;99.90;;;;;;5026094;28;20224;-64
2023/08/01 06:36:16;;;;;;;16.17;5.83;;;17.10;99.90;;;;;;5023067;28;20225;-64
2023/08/01 06:38:44;;;;;;;11.87;5.53;;;17.50;99.90;;;;;;5028325;28;20335;-65
2023/08/01 06:41:13;;;;;;;12.27;5.40;;;17.70;99.90;;;;;;5018946;28;20205;-64
2023/08/01 06:43:41;;;;;;;9.47;5.50;;;17.80;99.90;;;;;;5030317;28;20237;-64
2023/08/01 06:46:09;;;;;;;10.07;5.67;;;17.90;99.90;;;;;;5010909;28;20291;-64
2023/08/01 06:48:38;;;;;;;13.83;5.97;;;18.10;99.90;;;;;;5031526;28;20286;-64
2023/08/01 06:51:08;;;;;;;11.27;5.40;;;18.30;99.90;;;;;;5026376;28;20312;-64
2023/08/01 06:53:36;;;;;;;9.63;5.73;;;18.40;99.90;;;;;;5026670;28;20217;-64
2023/08/01 06:56:05;;;;;;;9.60;4.77;;;18.50;99.90;;;;;;5030751;28;20194;-65
2023/08/01 06:58:33;;;;;;;14.03;5.23;;;18.50;99.90;;;;;;5028846;28;20230;-65
2023/08/01 07:01:01;;;;;;;10.93;4.87;;;18.40;99.90;;;;;;5001482;28;21628;-65
2023/08/01 07:03:30;;;;;;;13.10;5.33;;;18.20;99.90;;;;;;5027179;28;20276;-65
2023/08/01 07:05:58;;;;;;;12.37;5.27;;;18.30;99.90;;;;;;5024983;28;20316;-64
2023/08/01 07:08:28;;;;;;;18.23;5.30;;;18.40;99.90;;;;;;5025565;28;20189;-64
2023/08/01 07:10:56;;;;;;;11.40;4.60;;;18.50;99.90;;;;;;5028650;28;20193;-64
2023/08/01 07:13:25;;;;;;;11.93;5.23;;;18.50;99.90;;;;;;5026182;28;20582;-64
2023/08/01 07:15:53;;;;;;;14.73;5.20;;;18.50;99.90;;;;;;5029396;28;20217;-64
2023/08/01 07:18:22;;;;;;;11.53;5.47;;;18.40;99.90;;;;;;5030506;28;20218;-64
2023/08/01 07:21:00;;;;;;;11.17;5.50;;;18.30;99.90;;;;;;5030581;28;20209;-64
2023/08/01 07:23:30;;;;;;;13.33;6.50;;;18.20;99.90;;;;;;5028436;28;20197;-64
2023/08/01 07:25:58;;;;;;;10.17;5.53;;;18.10;99.90;;;;;;5008202;28;20198;-64
2023/08/01 07:28:27;;;;;;;13.30;6.17;;;18.00;99.90;;;;;;5030557;28;20259;-64
2023/08/01 07:31:02;;;;;;;14.53;6.30;;;17.90;99.90;;;;;;5030599;28;20224;-65
2023/08/01 07:33:30;;;;;;;12.30;6.27;;;17.90;99.90;;;;;;5029723;28;20221;-65
2023/08/01 07:35:58;;;;;;;12.93;6.00;;;18.20;99.90;;;;;;5024282;28;20224;-64
2023/08/01 07:38:27;;;;;;;12.93;5.60;;;18.60;99.90;;;;;;5028762;28;20283;-65
2023/08/01 07:40:57;;;;;;;12.77;5.53;;;19.00;98.00;;;;;;5024742;28;20241;-65
2023/08/01 07:43:27;;;;;;;9.67;5.43;;;19.40;96.20;;;;;;5030864;28;20233;-65
2023/08/01 07:45:58;;;;;;;12.97;5.30;;;19.70;76.70;;;;;;5026638;28;20236;-64
2023/08/01 07:48:27;;;;;;;15.87;5.73;;;19.70;79.60;;;;;;5027735;28;20249;-65
2023/08/01 07:50:55;;;;;;;10.80;5.27;;;19.90;50.50;;;;;;5025668;28;20228;-64
2023/08/01 07:53:27;;;;;;;8.97;5.50;;;19.90;73.90;;;;;;5010901;28;20205;-65
2023/08/01 07:55:57;;;;;;;9.97;4.90;;;20.10;66.40;;;;;;5030407;28;20639;-65
2023/08/01 07:58:25;;;;;;;10.90;5.67;;;20.50;64.60;;;;;;5004173;28;20317;-65
2023/08/01 08:00:53;;;;;;;8.67;6.07;;;20.70;26.30;;;;;;5028842;28;20316;-65
2023/08/01 08:03:23;;;;;;;13.70;6.10;;;20.70;19.40;;;;;;5026891;28;20224;-65
2023/08/01 08:05:52;;;;;;;10.67;5.90;;;20.70;19.30;;;;;;5024057;28;20224;-63
2023/08/01 08:08:20;;;;;;;12.10;5.77;;;20.40;29.60;;;;;;5030388;28;20210;-63
2023/08/01 08:10:49;;;;;;;8.83;5.93;;;20.00;38.30;;;;;;5027693;28;20192;-63
2023/08/01 08:13:21;;;;;;;9.30;4.87;;;19.70;49.50;;;;;;5031502;28;20707;-65
2023/08/01 08:15:50;;;;;;;7.33;4.53;;;19.90;48.60;;;;;;4992894;28;20219;-64
2023/08/01 08:18:19;;;;;;;7.07;4.60;;;20.40;37.50;;;;;;5022324;28;20226;-65
2023/08/01 08:20:48;;;;;;;8.27;4.30;;;21.00;17.80;;;;;;5023267;28;20251;-64
2023/08/01 08:23:17;;;;;;;8.37;4.30;;;21.40;1.00;;;;;;5025689;28;20188;-64
2023/08/01 08:25:46;;;;;;;5.17;4.40;;;21.60;1.00;;;;;;5010871;28;20208;-65
2023/08/01 08:28:15;;;;;;;7.47;4.00;;;21.70;1.00;;;;;;5023580;28;20222;-65
2023/08/01 08:30:47;;;;;;;7.87;4.63;;;22.00;1.00;;;;;;5026788;28;20226;-65
2023/08/01 08:33:20;;;;;;;8.03;4.33;;;22.30;1.00;;;;;;5025686;28;20217;-64
2023/08/01 08:35:49;;;;;;;10.88;4.80;;;22.30;1.00;;;;;;5023187;28;20221;-64
2023/08/01 08:38:18;;;;;;;5.83;4.13;;;22.30;1.00;;;;;;5026444;28;20662;-64
2023/08/01 08:41:00;;;;;;;6.97;3.58;;;22.70;1.00;;;;;;5025917;28;20236;-64
2023/08/01 08:43:29;;;;;;;5.22;3.60;;;23.10;1.00;;;;;;5021144;28;20580;-64
2023/08/01 08:46:02;;;;;;;9.63;4.07;;;23.40;1.00;;;;;;5022180;28;20314;-64
2023/08/01 08:48:31;;;;;;;7.63;3.40;;;23.00;1.00;;;;;;5010386;28;20241;-64
2023/08/01 08:51:01;;;;;;;5.63;3.43;;;22.40;1.00;;;;;;5025457;28;20712;-64
2023/08/01 08:53:31;;;;;;;7.87;4.00;;;21.70;1.00;;;;;;5015588;28;20282;-64
2023/08/01 08:56:00;;;;;;;6.20;3.27;;;20.90;1.00;;;;;;5026584;28;21061;-65
2023/08/01 08:58:30;;;;;;;7.10;3.53;;;21.10;1.00;;;;;;5023302;28;20240;-64
2023/08/01 09:01:03;;;;;;;6.13;3.90;;;21.70;1.00;;;;;;5029496;28;20287;-65
2023/08/01 09:03:32;;;;;;;5.73;3.30;;;22.20;1.00;;;;;;5026448;28;20958;-65
2023/08/01 09:06:05;;;;;;;6.77;3.33;;;22.80;1.00;;;;;;5027368;28;20230;-64
2023/08/01 09:08:37;;;;;;;7.03;3.25;;;23.20;1.00;;;;;;5027302;28;20218;-65
2023/08/01 09:11:05;;;;;;;8.20;3.33;;;23.40;1.00;;;;;;5026150;28;20194;-65
2023/08/01 09:13:35;;;;;;;4.13;3.77;;;23.30;1.00;;;;;;5024470;28;20267;-65
2023/08/01 09:16:09;;;;;;;4.45;4.05;;;23.10;1.00;;;;;;5018913;28;20738;-65
2023/08/01 09:18:48;;;;;;;7.13;4.20;;;22.70;99.90;;;;;;5021339;28;20691;-64
2023/08/01 09:21:19;;;;;;;6.57;3.80;;;22.30;1.00;;;;;;5022187;28;20233;-64
2023/08/01 09:23:47;;;;;;;8.17;4.77;;;22.20;1.00;;;;;;5022394;28;20236;-64
2023/08/01 09:26:16;;;;;;;13.47;4.33;;;22.30;1.00;;;;;;5012789;28;20197;-64
2023/08/01 09:28:45;;;;;;;4.60;4.20;;;22.20;1.00;;;;;;5031083;28;20244;-64
2023/08/01 09:31:14;;;;;;;7.23;4.37;;;21.90;1.00;;;;;;5016010;28;20212;-64
2023/08/01 09:33:43;;;;;;;9.13;4.30;;;21.50;1.00;;;;;;5024998;28;20266;-64
2023/08/01 09:36:21;;;;;;;5.50;4.23;;;21.50;1.00;;;;;;5027011;28;20587;-65
2023/08/01 09:38:50;;;;;;;6.07;4.27;;;21.90;1.00;;;;;;5032341;28;20225;-65
2023/08/01 09:41:19;;;;;;;7.10;3.60;;;23.30;1.00;;;;;;5031566;28;20217;-65
2023/08/01 09:43:48;;;;;;;8.07;3.88;;;24.10;99.90;;;;;;5032667;28;20225;-65
2023/08/01 09:46:18;;;;;;;6.47;3.58;;;24.10;99.90;;;;;;5031590;28;20223;-64
2023/08/01 09:48:47;;;;;;;6.15;3.55;;;24.20;99.90;;;;;;5030061;28;20307;-65
2023/08/01 09:51:16;;;;;;;7.78;3.38;;;24.60;1.00;;;;;;5028779;28;20273;-65
2023/08/01 09:53:50;;;;;;;10.57;3.53;;;24.30;1.00;;;;;;5026565;28;20245;-66
2023/08/01 09:56:21;;;;;;;3.47;3.10;;;24.10;8.90;;;;;;5026249;28;20190;-65
2023/08/01 09:58:50;;;;;;;3.60;2.93;;;23.60;93.50;;;;;;5028769;28;20214;-65
2023/08/01 10:01:23;;;;;;;4.13;2.70;;;23.40;1.00;;;;;;5028590;28;20228;-65
2023/08/01 10:03:54;;;;;;;6.00;3.17;;;23.50;99.90;;;;;;5008112;28;20230;-65
2023/08/01 10:06:25;;;;;;;6.73;3.13;;;23.70;99.90;;;;;;5027057;28;20228;-65
2023/08/01 10:08:54;;;;;;;5.93;2.90;;;23.50;99.90;;;;;;5022312;28;20226;-65
2023/08/01 10:11:23;;;;;;;6.13;2.70;;;23.10;99.90;;;;;;5021443;28;20289;-66
2023/08/01 10:13:51;;;;;;;3.93;2.43;;;22.70;99.90;;;;;;5025914;28;20202;-65
2023/08/01 10:16:22;;;;;;;5.03;2.73;;;22.40;1.00;;;;;;5031000;28;20614;-65
2023/08/01 10:18:51;;;;;;;4.40;2.60;;;22.40;99.90;;;;;;5032371;28;20777;-65
2023/08/01 10:21:21;;;;;;;4.57;2.50;;;22.50;1.00;;;;;;5031181;28;20232;-65
2023/08/01 10:23:50;;;;;;;3.43;2.20;;;22.80;1.00;;;;;;5027812;28;20221;-66
2023/08/01 10:26:19;;;;;;;8.03;2.80;;;22.90;99.90;;;;;;5029911;28;20670;-65
2023/08/01 10:28:52;;;;;;;4.53;2.30;;;22.50;99.90;;;;;;5031507;28;20543;-66
2023/08/01 10:31:22;;;;;;;6.93;2.30;;;22.20;1.00;;;;;;5032101;28;21063;-65
2023/08/01 10:33:52;;;;;;;6.13;2.60;;;21.80;1.00;;;;;;5030850;28;20259;-65
2023/08/01 10:36:21;;;;;;;8.50;2.93;;;21.50;1.00;;;;;;5030504;28;20222;-65
2023/08/01 10:38:51;;;;;;;3.67;2.60;;;21.30;1.00;;;;;;5022106;23;20585;-59
2023/08/01 10:41:21;;;;;;;4.93;2.43;;;20.90;1.00;;;;;;5013345;28;20213;-59
2023/08/01 10:43:49;;;;;;;6.07;2.77;;;20.70;1.00;;;;;;5010439;28;20222;-59
2023/08/01 10:46:18;;;;;;;4.70;2.63;;;20.60;1.00;;;;;;5012704;28;20592;-60
2023/08/01 10:48:52;;;;;;;8.10;2.60;;;20.40;1.00;;;;;;5009150;28;20710;-59
2023/08/01 10:51:23;;;;;;;3.93;3.40;;;20.10;1.00;;;;;;5019198;28;20213;-60
2023/08/01 10:53:53;;;;;;;9.93;3.40;;;19.90;1.00;;;;;;5010482;28;20225;-59
2023/08/01 10:56:21;;;;;;;6.17;2.90;;;20.80;1.00;;;;;;5008130;28;21161;-60
2023/08/01 10:58:53;;;;;;;4.87;2.90;;;22.30;1.00;;;;;;5000314;28;20222;-60
2023/08/01 11:01:21;;;;;;;5.80;2.87;;;23.50;1.00;;;;;;5008305;28;20236;-60
2023/08/01 11:03:51;;;;;;;4.13;2.80;;;24.00;99.90;;;;;;5009662;28;20264;-60
2023/08/01 11:06:20;;;;;;;5.65;3.05;;;24.20;99.90;;;;;;5008342;28;20730;-60
2023/08/01 11:08:48;;;;;;;4.70;2.13;;;24.60;99.90;;;;;;5005695;28;20227;-60
2023/08/01 11:11:17;;;;;;;3.83;2.42;;;25.20;1.00;;;;;;5008966;28;20217;-60
2023/08/01 11:13:58;;;;;;;3.60;2.00;;;25.30;1.00;;;;;;5016671;28;20215;-60
2023/08/01 11:16:27;;;;;;;5.00;2.25;;;24.60;99.90;;;;;;5011468;28;20222;-60
2023/08/01 11:18:56;;;;;;;4.17;2.10;;;23.90;1.00;;;;;;5011932;28;20289;-60
2023/08/01 11:21:30;;;;;;;7.00;2.10;;;23.40;1.00;;;;;;5000624;28;20225;-63
2023/08/01 11:23:58;;;;;;;2.40;2.00;;;22.90;1.00;;;;;;5010065;28;20225;-60
2023/08/01 11:26:27;;;;;;;1.77;1.67;;;22.50;1.00;;;;;;5010501;28;20300;-59
2023/08/01 11:28:55;;;;;;;3.37;1.80;;;22.90;56.50;;;;;;4991348;28;20272;-60
2023/08/01 11:31:24;;;;;;;2.97;1.90;;;23.70;1.00;;;;;;5015885;28;20222;-60
2023/08/01 11:34:01;;;;;;;3.40;1.97;;;24.50;99.90;;;;;;5004868;28;20214;-60
2023/08/01 11:36:30;;;;;;;4.05;1.80;;;25.00;1.00;;;;;;5019346;28;20201;-60
2023/08/01 11:39:01;;;;;;;3.90;1.77;;;25.10;1.00;;;;;;4991124;28;20346;-61
2023/08/01 11:41:30;;;;;;;3.30;1.53;;;24.50;1.00;;;;;;5010495;28;20228;-60
2023/08/01 11:44:04;;;;;;;3.30;2.00;;;24.20;99.90;;;;;;5005486;28;20785;-60
2023/08/01 11:46:34;;;;;;;3.83;1.87;;;24.20;99.90;;;;;;4994742;28;20276;-60
2023/08/01 11:49:06;;;;;;;2.30;1.70;;;23.80;1.00;;;;;;5003052;28;20987;-60
2023/08/01 11:51:41;;;;;;;1.90;1.47;;;23.10;99.90;;;;;;5006429;28;20190;-60
2023/08/01 11:54:11;;;;;;;2.97;1.73;;;22.70;99.90;;;;;;5002527;28;20321;-59
2023/08/01 11:56:40;;;;;;;3.43;1.60;;;22.20;1.00;;;;;;5000448;28;20219;-59
2023/08/01 11:59:11;;;;;;;2.80;1.90;;;21.90;1.00;;;;;;5005921;28;20219;-59
2023/08/01 12:01:40;;;;;;;3.50;1.63;;;21.70;1.00;;;;;;5008063;28;20215;-59
2023/08/01 12:04:11;;;;;;;2.90;1.60;;;21.70;99.90;;;;;;5003879;28;20322;-59
2023/08/01 12:06:40;;;;;;;4.57;2.00;;;21.70;99.90;;;;;;5007322;28;20196;-59
2023/08/01 12:09:13;;;;;;;4.20;1.80;;;21.70;99.90;;;;;;5004567;28;20224;-59
2023/08/01 12:11:42;;;;;;;3.20;1.80;;;21.90;99.90;;;;;;5008987;28;20210;-59
2023/08/01 12:14:13;;;;;;;2.50;1.70;;;21.80;99.90;;;;;;5013390;28;20223;-59
2023/08/01 12:16:44;;;;;;;3.67;2.03;;;21.60;99.90;;;;;;5007831;28;20226;-60
2023/08/01 12:19:19;;;;;;;5.37;1.93;;;21.40;1.00;;;;;;5001513;28;20234;-60
2023/08/01 12:21:48;;;;;;;4.00;1.93;;;21.30;1.00;;;;;;5004994;28;20298;-59
2023/08/01 12:24:17;;;;;;;7.67;2.10;;;21.30;1.00;;;;;;5001741;28;20251;-59
2023/08/01 12:26:45;;;;;;;6.60;1.73;;;21.30;1.00;;;;;;5003757;28;20242;-60
2023/08/01 12:29:14;;;;;;;2.73;1.57;;;21.30;1.00;;;;;;5004651;28;20306;-60
2023/08/01 12:31:42;;;;;;;3.23;1.50;;;21.50;1.00;;;;;;5001790;28;20223;-60
2023/08/01 12:34:13;;;;;;;3.10;1.80;;;22.00;1.00;;;;;;5003700;28;20686;-60
2023/08/01 12:36:44;;;;;;;2.87;1.80;;;22.50;99.90;;;;;;5009655;28;20220;-60
2023/08/01 12:39:12;;;;;;;3.43;2.03;;;22.70;99.90;;;;;;4989339;28;20264;-60
2023/08/01 12:41:41;;;;;;;5.33;2.17;;;22.70;99.90;;;;;;5001296;28;20228;-60
2023/08/01 12:44:09;;;;;;;3.40;2.00;;;22.70;99.90;;;;;;5038349;22;20231;-66
2023/08/01 12:46:39;;;;;;;4.30;1.87;;;22.60;99.90;;;;;;5011135;28;20330;-66
2023/08/01 12:49:16;;;;;;;4.17;1.93;;;22.40;99.90;;;;;;5022724;28;20192;-65
2023/08/01 12:51:44;;;;;;;5.37;2.03;;;22.10;99.90;;;;;;5147194;23;20239;-63
2023/08/01 12:54:13;;;;;;;3.07;2.10;;;21.80;99.90;;;;;;5030726;28;20199;-63